Time;durP1;ratioP1;P1;durP2;ratioP2;P2;SDS_P1;SDS_P2;PMS_P1;PMS_P2;Temp;Humidity;BMP_temperature;BMP_pressure;BME280_temperature;BME280_humidity;BME280_pressure;Samples;Min_cycle;Max_cycle;Signal;HPM_P1;HPM_P2
2023/08/01 00:02:20;;;;;;;2.13;1.92;;;18.40;99.90;;;;;;5035140;28;20025;-77
2023/08/01 00:04:46;;;;;;;2.28;2.08;;;18.50;99.90;;;;;;5034518;28;20033;-77
2023/08/01 00:07:11;;;;;;;1.92;1.70;;;18.50;99.90;;;;;;5034804;28;20033;-77
2023/08/01 00:09:37;;;;;;;2.08;1.85;;;18.40;99.90;;;;;;5034563;28;20030;-76
2023/08/01 00:12:03;;;;;;;5.75;2.55;;;18.40;99.90;;;;;;5035092;28;20446;-75
2023/08/01 00:14:28;;;;;;;4.82;2.33;;;18.40;99.90;;;;;;5035006;28;20049;-74
2023/08/01 00:16:54;;;;;;;2.30;2.10;;;18.40;99.90;;;;;;5035120;28;20407;-77
2023/08/01 00:19:20;;;;;;;2.65;1.60;;;18.40;99.90;;;;;;5034752;28;20025;-77
2023/08/01 00:21:46;;;;;;;2.47;1.77;;;18.40;99.90;;;;;;5034487;28;20143;-76
2023/08/01 00:24:12;;;;;;;2.00;1.75;;;18.50;99.90;;;;;;5034073;28;20022;-76
2023/08/01 00:26:37;;;;;;;3.30;2.38;;;18.50;99.90;;;;;;5036809;28;20542;-77
2023/08/01 00:29:03;;;;;;;4.20;1.83;;;18.50;99.90;;;;;;5036889;28;20029;-75
2023/08/01 00:31:29;;;;;;;4.05;1.73;;;18.50;99.90;;;;;;5036998;28;20499;-75
2023/08/01 00:33:54;;;;;;;2.50;1.70;;;18.40;99.90;;;;;;5037392;28;20605;-77
2023/08/01 00:36:20;;;;;;;2.83;2.10;;;18.40;99.90;;;;;;5035900;28;20045;-75
2023/08/01 00:38:46;;;;;;;3.08;1.80;;;18.40;99.90;;;;;;5037652;28;20025;-76
2023/08/01 00:41:11;;;;;;;3.13;2.10;;;18.40;99.90;;;;;;5035726;28;20028;-76
2023/08/01 00:43:37;;;;;;;3.42;1.88;;;18.40;99.90;;;;;;5036616;28;20503;-74
2023/08/01 00:46:05;;;;;;;2.63;1.75;;;18.40;99.90;;;;;;5035808;28;20102;-75
2023/08/01 00:48:31;;;;;;;2.78;1.90;;;18.30;99.90;;;;;;5035126;28;20029;-75
2023/08/01 00:51:08;;;;;;;3.45;2.53;;;18.30;99.90;;;;;;5036479;28;20385;-76
2023/08/01 00:53:35;;;;;;;2.30;1.80;;;18.30;99.90;;;;;;5036894;28;20025;-75
2023/08/01 00:56:00;;;;;;;1.85;1.38;;;18.20;99.90;;;;;;5036769;28;20017;-76
2023/08/01 00:58:26;;;;;;;2.63;1.52;;;18.10;99.90;;;;;;5036234;28;20022;-76
2023/08/01 01:00:52;;;;;;;1.70;1.60;;;18.10;99.90;;;;;;5036611;28;20024;-75
2023/08/01 01:03:18;;;;;;;4.32;1.73;;;18.10;99.90;;;;;;5036875;28;20189;-76
2023/08/01 01:06:22;;;;;;;2.60;1.80;;;18.00;99.90;;;;;;5035005;28;20083;-75
2023/08/01 01:08:48;;;;;;;1.40;1.30;;;17.90;99.90;;;;;;5031718;28;20037;-75
2023/08/01 01:11:13;;;;;;;1.88;1.67;;;17.90;99.90;;;;;;5033261;28;20049;-76
2023/08/01 01:13:39;;;;;;;2.38;1.75;;;17.90;99.90;;;;;;5033076;28;20033;-76
2023/08/01 01:16:05;;;;;;;3.30;1.60;;;17.90;99.90;;;;;;5033084;28;20034;-77
2023/08/01 01:18:31;;;;;;;3.80;1.52;;;17.80;99.90;;;;;;5032163;28;20391;-77
2023/08/01 01:20:56;;;;;;;3.28;1.92;;;17.80;99.90;;;;;;5034228;28;20479;-75
2023/08/01 01:23:23;;;;;;;1.80;1.50;;;17.70;99.90;;;;;;5035850;28;20491;-76
2023/08/01 01:25:51;;;;;;;2.28;1.40;;;17.60;99.90;;;;;;5034490;28;20034;-76
2023/08/01 01:28:17;;;;;;;3.03;1.60;;;17.60;99.90;;;;;;5034837;28;20036;-77
2023/08/01 01:30:44;;;;;;;2.22;1.50;;;17.60;99.90;;;;;;5036270;28;20162;-76
2023/08/01 01:33:11;;;;;;;1.85;1.55;;;17.60;99.90;;;;;;5035302;28;20057;-77
2023/08/01 01:35:36;;;;;;;6.00;1.38;;;17.60;99.90;;;;;;5037081;28;20043;-77
2023/08/01 01:38:05;;;;;;;3.10;1.90;;;17.60;99.90;;;;;;5033721;28;20543;-77
2023/08/01 01:40:32;;;;;;;1.77;1.55;;;17.60;99.90;;;;;;5033785;28;20344;-75
2023/08/01 01:42:59;;;;;;;2.25;1.75;;;17.60;99.90;;;;;;5033836;28;20029;-77
2023/08/01 01:45:24;;;;;;;2.63;1.52;;;17.40;99.90;;;;;;5032479;28;20091;-75
2023/08/01 01:47:50;;;;;;;4.22;1.88;;;17.40;99.90;;;;;;5031615;28;20025;-76
2023/08/01 01:50:16;;;;;;;1.70;1.52;;;17.40;99.90;;;;;;5032373;28;20030;-75
2023/08/01 01:52:41;;;;;;;1.85;1.38;;;17.40;99.90;;;;;;5031133;28;20053;-77
2023/08/01 01:55:07;;;;;;;2.63;1.52;;;17.40;99.90;;;;;;5032327;28;20026;-77
2023/08/01 01:57:36;;;;;;;1.80;1.70;;;17.30;99.90;;;;;;5032436;28;20104;-77
2023/08/01 02:00:02;;;;;;;3.45;1.65;;;17.30;99.90;;;;;;5032492;28;20048;-77
2023/08/01 02:02:27;;;;;;;1.35;1.27;;;17.30;99.90;;;;;;5034302;28;20022;-77
2023/08/01 02:04:53;;;;;;;3.42;1.45;;;17.30;99.90;;;;;;5035018;28;20442;-78
2023/08/01 02:07:18;;;;;;;7.22;1.73;;;17.30;99.90;;;;;;5034886;28;20522;-77
2023/08/01 02:09:44;;;;;;;4.45;1.67;;;17.30;99.90;;;;;;5036529;28;20055;-77
2023/08/01 02:12:13;;;;;;;3.85;1.85;;;17.30;99.90;;;;;;5034165;28;20488;-76
2023/08/01 02:14:39;;;;;;;2.72;2.08;;;17.20;99.90;;;;;;5030976;28;20042;-76
2023/08/01 02:17:05;;;;;;;1.80;1.48;;;17.10;99.90;;;;;;5032279;28;20155;-76
2023/08/01 02:19:30;;;;;;;2.00;1.60;;;17.10;99.90;;;;;;5032291;28;20111;-77
2023/08/01 02:21:56;;;;;;;2.00;1.80;;;17.10;99.90;;;;;;5031029;28;20112;-77
2023/08/01 02:24:21;;;;;;;1.58;1.40;;;17.10;99.90;;;;;;5030925;28;20037;-77
2023/08/01 02:26:48;;;;;;;1.80;1.40;;;17.10;99.90;;;;;;5032068;28;20053;-75
2023/08/01 02:29:14;;;;;;;3.15;1.90;;;17.10;99.90;;;;;;5032039;28;20030;-77
2023/08/01 02:31:40;;;;;;;2.78;1.42;;;17.10;99.90;;;;;;5032756;28;20376;-76
2023/08/01 02:34:05;;;;;;;1.52;1.40;;;17.10;99.90;;;;;;5034752;28;20060;-76
2023/08/01 02:36:31;;;;;;;1.65;1.45;;;17.10;99.90;;;;;;5035162;28;20022;-77
2023/08/01 02:38:56;;;;;;;2.55;1.30;;;17.00;99.90;;;;;;5036810;28;20546;-77
2023/08/01 02:41:22;;;;;;;3.30;1.85;;;17.00;99.90;;;;;;5036774;28;20018;-77
2023/08/01 02:43:47;;;;;;;1.75;1.60;;;16.90;99.90;;;;;;5036076;28;20028;-76
2023/08/01 02:46:13;;;;;;;2.58;1.65;;;16.80;99.90;;;;;;5043882;23;20416;-77
2023/08/01 02:48:39;;;;;;;2.20;1.83;;;16.80;99.90;;;;;;5011118;28;20029;-77
2023/08/01 02:51:04;;;;;;;4.13;1.67;;;16.70;99.90;;;;;;5011897;28;20037;-77
2023/08/01 02:53:30;;;;;;;2.10;1.60;;;16.80;99.90;;;;;;5012007;28;20030;-77
2023/08/01 02:55:55;;;;;;;3.25;1.92;;;16.80;99.90;;;;;;5012048;28;20050;-77
2023/08/01 02:58:21;;;;;;;4.75;1.70;;;16.70;99.90;;;;;;5010925;28;20022;-77
2023/08/01 03:00:47;;;;;;;2.58;2.15;;;16.70;99.90;;;;;;5012034;28;20065;-77
2023/08/01 03:03:13;;;;;;;3.00;2.33;;;16.70;99.90;;;;;;5010585;28;20117;-77
2023/08/01 03:05:38;;;;;;;7.35;2.00;;;16.70;99.90;;;;;;5011716;28;20523;-77
2023/08/01 03:08:05;;;;;;;3.22;2.22;;;16.70;99.90;;;;;;5010712;28;20515;-77
2023/08/01 03:10:30;;;;;;;4.63;2.80;;;16.70;99.90;;;;;;5011841;28;20160;-77
2023/08/01 03:12:56;;;;;;;3.45;1.92;;;16.70;99.90;;;;;;5011963;28;20109;-77
2023/08/01 03:15:21;;;;;;;1.65;1.42;;;16.70;99.90;;;;;;5015126;28;20026;-77
2023/08/01 03:17:47;;;;;;;2.35;1.85;;;16.70;99.90;;;;;;5015741;28;20026;-77
2023/08/01 03:20:13;;;;;;;4.07;2.05;;;16.70;99.90;;;;;;5015546;28;20026;-77
2023/08/01 03:22:42;;;;;;;2.72;2.53;;;16.70;99.90;;;;;;5015654;28;20400;-77
2023/08/01 03:25:08;;;;;;;4.05;1.98;;;16.60;99.90;;;;;;5015593;28;20108;-78
2023/08/01 03:27:34;;;;;;;1.95;1.60;;;16.60;99.90;;;;;;5015572;28;20053;-77
2023/08/01 03:30:00;;;;;;;1.92;1.40;;;16.60;99.90;;;;;;5015259;28;20033;-77
2023/08/01 03:32:26;;;;;;;2.92;1.75;;;16.60;99.90;;;;;;5015508;28;20022;-78
2023/08/01 03:34:52;;;;;;;4.72;2.00;;;16.60;99.90;;;;;;5015413;28;20036;-78
2023/08/01 03:37:18;;;;;;;2.17;1.42;;;16.60;99.90;;;;;;5013710;28;20022;-77
2023/08/01 03:39:44;;;;;;;4.68;1.52;;;16.60;99.90;;;;;;5015042;28;20025;-77
2023/08/01 03:42:10;;;;;;;3.88;1.77;;;16.50;99.90;;;;;;5015181;28;20056;-77
2023/08/01 03:44:35;;;;;;;2.40;1.50;;;16.50;99.90;;;;;;5014952;28;20387;-76
2023/08/01 03:47:01;;;;;;;2.45;2.08;;;16.50;99.90;;;;;;5015220;28;20042;-77
2023/08/01 03:49:26;;;;;;;3.95;1.80;;;16.50;99.90;;;;;;5015049;28;20033;-77
2023/08/01 03:51:52;;;;;;;2.65;2.13;;;16.50;99.90;;;;;;5014518;28;20116;-78
2023/08/01 03:54:18;;;;;;;3.65;2.20;;;16.60;99.90;;;;;;5014999;28;20041;-77
2023/08/01 03:56:44;;;;;;;1.85;1.75;;;16.60;99.90;;;;;;5013490;28;20045;-77
2023/08/01 03:59:16;;;;;;;4.40;2.40;;;16.70;99.90;;;;;;5013685;28;20022;-77
2023/08/01 04:01:42;;;;;;;4.07;2.15;;;16.80;99.90;;;;;;5014776;28;20480;-78
2023/08/01 04:04:08;;;;;;;3.20;2.35;;;16.90;99.90;;;;;;5013328;28;20037;-77
2023/08/01 04:06:34;;;;;;;7.13;2.33;;;17.00;99.90;;;;;;5014771;28;20073;-77
2023/08/01 04:09:00;;;;;;;8.48;2.03;;;16.90;99.90;;;;;;5013584;28;20532;-78
2023/08/01 04:11:26;;;;;;;7.03;3.45;;;16.90;99.90;;;;;;5013449;28;20112;-79
2023/08/01 04:13:52;;;;;;;1.73;1.50;;;16.90;99.90;;;;;;5014268;28;20022;-77
2023/08/01 04:16:17;;;;;;;11.45;3.00;;;17.30;99.90;;;;;;5013366;28;20029;-77
2023/08/01 04:18:43;;;;;;;5.85;3.45;;;18.20;99.90;;;;;;5014532;28;20030;-77
2023/08/01 04:21:09;;;;;;;9.00;3.95;;;18.90;99.90;;;;;;5016430;28;20037;-79
2023/08/01 04:23:34;;;;;;;7.13;3.80;;;19.70;99.90;;;;;;5015676;28;20037;-79
2023/08/01 04:26:00;;;;;;;4.28;3.22;;;20.00;99.90;;;;;;5014736;28;20095;-79
2023/08/01 04:28:26;;;;;;;7.82;3.88;;;20.10;99.90;;;;;;5013113;28;20052;-79
2023/08/01 04:30:52;;;;;;;6.60;3.78;;;20.30;99.90;;;;;;5015859;28;20030;-80
2023/08/01 04:33:18;;;;;;;6.25;2.80;;;20.40;99.90;;;;;;5013725;28;20052;-79
2023/08/01 04:35:44;;;;;;;5.63;3.03;;;20.10;99.90;;;;;;5015527;28;20021;-79
2023/08/01 04:38:10;;;;;;;4.82;2.72;;;19.60;99.90;;;;;;5014454;28;20108;-79
2023/08/01 04:40:36;;;;;;;5.82;2.97;;;19.70;99.90;;;;;;5015636;28;20022;-79
2023/08/01 04:43:02;;;;;;;4.07;3.15;;;19.80;99.90;;;;;;5015433;28;20104;-79
2023/08/01 04:45:28;;;;;;;5.78;3.78;;;19.90;99.90;;;;;;5013649;28;20045;-78
2023/08/01 04:47:53;;;;;;;4.90;3.15;;;19.80;99.90;;;;;;5013125;28;20029;-78
2023/08/01 04:50:19;;;;;;;8.73;4.25;;;19.70;99.90;;;;;;5014640;28;20100;-78
2023/08/01 04:52:45;;;;;;;4.57;3.38;;;19.50;99.90;;;;;;5013238;28;20539;-78
2023/08/01 04:55:10;;;;;;;4.25;3.13;;;19.60;99.90;;;;;;5014637;28;20467;-79
2023/08/01 04:57:36;;;;;;;3.70;3.13;;;19.50;99.90;;;;;;5013248;28;20087;-78
2023/08/01 05:00:03;;;;;;;8.10;3.10;;;19.40;99.90;;;;;;5014643;28;20026;-78
2023/08/01 05:02:28;;;;;;;3.40;3.10;;;19.70;99.90;;;;;;5013100;28;20037;-78
2023/08/01 05:04:54;;;;;;;4.43;2.95;;;20.00;99.90;;;;;;5014473;28;20029;-78
2023/08/01 05:07:20;;;;;;;5.65;3.10;;;19.90;99.90;;;;;;5013005;28;20022;-78
2023/08/01 05:09:45;;;;;;;3.90;2.58;;;19.90;99.90;;;;;;5014121;28;20388;-78
2023/08/01 05:12:11;;;;;;;3.78;2.88;;;20.10;99.90;;;;;;5014173;28;20022;-79
2023/08/01 05:14:37;;;;;;;5.43;3.50;;;20.00;99.90;;;;;;5014208;28;20029;-78
2023/08/01 05:17:02;;;;;;;5.75;2.53;;;20.00;99.90;;;;;;5014719;28;20014;-78
2023/08/01 05:19:28;;;;;;;3.00;2.70;;;20.00;99.90;;;;;;5014150;28;20105;-79
2023/08/01 05:21:55;;;;;;;13.32;5.22;;;19.90;99.90;;;;;;5014972;28;20052;-79
2023/08/01 05:24:20;;;;;;;7.03;3.88;;;19.90;99.90;;;;;;5012817;28;20034;-78
2023/08/01 05:26:46;;;;;;;3.92;3.17;;;19.70;99.90;;;;;;5014346;28;20080;-78
2023/08/01 05:29:12;;;;;;;2.53;2.33;;;19.70;99.90;;;;;;5012596;28;20485;-78
2023/08/01 05:31:38;;;;;;;3.22;2.92;;;19.60;99.90;;;;;;5013761;28;20026;-78
2023/08/01 05:34:03;;;;;;;3.33;2.80;;;19.80;99.90;;;;;;5013755;28;20472;-78
2023/08/01 05:36:29;;;;;;;5.53;3.00;;;20.00;99.90;;;;;;5011722;28;20022;-79
2023/08/01 05:38:56;;;;;;;3.28;2.78;;;20.20;99.90;;;;;;5013143;28;20037;-79
2023/08/01 05:41:21;;;;;;;3.42;2.67;;;20.40;99.90;;;;;;5014595;28;20018;-79
2023/08/01 05:43:48;;;;;;;2.28;2.05;;;20.50;99.90;;;;;;5014088;28;20502;-78
2023/08/01 05:46:14;;;;;;;4.13;2.63;;;20.60;99.90;;;;;;5012575;28;20631;-78
2023/08/01 05:48:40;;;;;;;5.03;2.53;;;20.70;99.90;;;;;;5013799;28;20034;-78
2023/08/01 05:51:05;;;;;;;2.97;2.45;;;20.80;99.90;;;;;;5012107;28;20026;-79
2023/08/01 05:53:31;;;;;;;3.80;2.30;;;20.00;99.90;;;;;;5013594;28;20029;-78
2023/08/01 05:55:57;;;;;;;3.58;2.70;;;20.80;99.90;;;;;;5013345;28;20096;-79
2023/08/01 05:58:22;;;;;;;3.92;2.47;;;20.80;99.90;;;;;;5012130;28;20022;-78
2023/08/01 06:00:49;;;;;;;3.03;2.72;;;20.90;99.90;;;;;;5011798;28;20022;-78
2023/08/01 06:03:14;;;;;;;2.88;2.47;;;20.70;99.90;;;;;;5012259;28;20030;-79
2023/08/01 06:05:40;;;;;;;3.20;2.55;;;20.80;99.90;;;;;;5011983;28;20026;-78
2023/08/01 06:08:07;;;;;;;3.70;2.05;;;20.80;99.90;;;;;;5012252;28;20428;-79
2023/08/01 06:10:33;;;;;;;4.40;2.00;;;20.80;99.90;;;;;;5013705;28;20034;-79
2023/08/01 06:12:59;;;;;;;5.93;2.38;;;20.60;99.90;;;;;;5013568;28;20026;-79
2023/08/01 06:15:25;;;;;;;2.67;1.90;;;20.40;99.90;;;;;;5011809;28;20018;-79
2023/08/01 06:17:50;;;;;;;3.70;2.20;;;20.50;99.90;;;;;;5011583;28;20023;-78
2023/08/01 06:20:16;;;;;;;11.55;1.90;;;20.70;99.90;;;;;;5012057;28;20503;-79
2023/08/01 06:22:42;;;;;;;2.22;1.95;;;20.90;99.90;;;;;;5013081;28;20026;-78
2023/08/01 06:25:08;;;;;;;4.82;2.15;;;21.20;99.90;;;;;;5012710;28;20473;-79
2023/08/01 06:27:34;;;;;;;4.10;2.38;;;21.40;99.90;;;;;;5012651;28;20026;-79
2023/08/01 06:30:00;;;;;;;4.43;2.35;;;21.80;99.90;;;;;;5011372;28;20026;-78
2023/08/01 06:32:26;;;;;;;5.85;2.22;;;21.90;99.90;;;;;;5012282;28;20564;-79
2023/08/01 06:34:51;;;;;;;2.35;1.92;;;22.20;99.90;;;;;;5013080;28;20396;-79
2023/08/01 06:37:17;;;;;;;5.30;2.00;;;22.40;99.90;;;;;;5012984;28;20026;-79
2023/08/01 06:39:42;;;;;;;1.92;1.80;;;22.30;99.90;;;;;;5010410;28;20052;-81
2023/08/01 06:42:08;;;;;;;3.90;1.80;;;22.40;99.90;;;;;;5011223;28;20026;-77
2023/08/01 06:44:34;;;;;;;3.38;1.80;;;22.30;99.90;;;;;;5010931;28;20029;-77
2023/08/01 06:47:00;;;;;;;3.30;1.83;;;22.30;99.90;;;;;;5013114;28;20105;-81
2023/08/01 06:49:25;;;;;;;2.75;1.80;;;22.30;99.90;;;;;;5020516;28;20026;-81
2023/08/01 06:51:51;;;;;;;2.58;2.20;;;22.40;99.90;;;;;;5017978;28;20392;-81
2023/08/01 06:54:16;;;;;;;5.43;2.20;;;22.60;99.90;;;;;;5018228;28;20026;-81
2023/08/01 06:56:47;;;;;;;2.80;1.92;;;22.80;99.90;;;;;;5018657;28;20022;-81
2023/08/01 06:59:16;;;;;;;2.08;1.80;;;22.80;99.90;;;;;;5020408;28;20017;-81
2023/08/01 07:01:43;;;;;;;3.60;2.35;;;23.10;99.90;;;;;;5021007;28;20026;-81
2023/08/01 07:04:13;;;;;;;2.30;1.52;;;23.30;99.90;;;;;;5018958;28;20026;-81
2023/08/01 07:06:39;;;;;;;5.95;1.77;;;23.30;99.90;;;;;;5017859;28;20388;-81
2023/08/01 07:09:06;;;;;;;2.63;1.88;;;23.40;99.90;;;;;;5018462;28;20026;-81
2023/08/01 07:11:31;;;;;;;3.08;2.00;;;23.80;99.90;;;;;;5018109;28;20076;-80
2023/08/01 07:13:57;;;;;;;2.35;1.80;;;23.80;99.90;;;;;;5018726;28;20431;-81
2023/08/01 07:16:23;;;;;;;3.38;1.70;;;24.10;99.90;;;;;;5019101;28;20048;-81
2023/08/01 07:18:50;;;;;;;2.80;1.77;;;24.20;99.90;;;;;;5022295;28;20101;-81
2023/08/01 07:21:16;;;;;;;1.70;1.58;;;24.20;99.90;;;;;;5018696;28;20112;-81
2023/08/01 07:23:41;;;;;;;1.85;1.63;;;24.10;99.90;;;;;;5019723;28;20058;-80
2023/08/01 07:26:07;;;;;;;2.30;1.70;;;23.80;99.90;;;;;;5019177;28;20025;-80
2023/08/01 07:28:33;;;;;;;1.50;1.40;;;23.60;99.90;;;;;;5022932;28;20026;-81
2023/08/01 07:31:04;;;;;;;2.67;2.03;;;23.70;99.90;;;;;;5023011;28;20021;-80
2023/08/01 07:33:30;;;;;;;2.72;1.98;;;23.80;99.90;;;;;;5019855;28;20511;-81
2023/08/01 07:35:56;;;;;;;2.15;1.95;;;24.00;99.90;;;;;;5019467;28;20029;-81
2023/08/01 07:38:21;;;;;;;1.50;1.23;;;23.90;99.90;;;;;;5019314;28;20059;-81
2023/08/01 07:40:47;;;;;;;3.90;1.50;;;24.00;99.90;;;;;;5018901;28;20411;-81
2023/08/01 07:43:12;;;;;;;1.88;1.60;;;24.00;99.90;;;;;;5019565;28;20030;-81
2023/08/01 07:45:38;;;;;;;6.68;2.08;;;23.80;99.90;;;;;;5020327;28;20069;-81
2023/08/01 07:48:04;;;;;;;3.33;1.85;;;24.00;99.90;;;;;;5022434;28;20046;-79
2023/08/01 07:50:30;;;;;;;2.22;1.50;;;24.30;99.90;;;;;;5021605;28;20032;-79
2023/08/01 07:52:56;;;;;;;4.25;1.85;;;24.50;99.90;;;;;;5007996;28;20526;-79
2023/08/01 07:55:21;;;;;;;1.90;1.63;;;24.70;99.90;;;;;;5002890;28;20062;-78
2023/08/01 07:57:50;;;;;;;6.35;2.03;;;24.80;99.90;;;;;;5003473;28;20098;-79
2023/08/01 08:00:16;;;;;;;7.43;1.98;;;25.00;99.90;;;;;;4997660;28;20037;-79
2023/08/01 08:02:42;;;;;;;1.95;1.52;;;24.90;99.40;;;;;;4996504;28;20120;-80
2023/08/01 08:05:09;;;;;;;3.60;1.80;;;25.00;99.90;;;;;;4995860;28;20086;-80
2023/08/01 08:07:36;;;;;;;1.70;1.35;;;25.30;99.20;;;;;;4998610;28;20027;-81
2023/08/01 08:10:02;;;;;;;1.80;1.65;;;25.20;98.60;;;;;;5001704;28;20027;-81
2023/08/01 08:12:28;;;;;;;4.32;1.60;;;25.50;99.30;;;;;;5000390;28;20505;-81
2023/08/01 08:14:53;;;;;;;2.10;1.63;;;25.70;98.10;;;;;;5001274;28;20022;-82
2023/08/01 08:17:19;;;;;;;1.65;1.55;;;25.60;98.40;;;;;;5001793;28;20023;-83
2023/08/01 08:19:45;;;;;;;2.67;1.92;;;25.50;97.30;;;;;;5001679;28;20030;-82
2023/08/01 08:22:10;;;;;;;2.20;1.77;;;25.70;96.20;;;;;;4998047;28;20117;-81
2023/08/01 08:24:36;;;;;;;4.47;1.30;;;25.80;96.10;;;;;;4999270;28;20026;-79
2023/08/01 08:27:02;;;;;;;3.00;2.00;;;25.70;96.30;;;;;;4998169;28;20054;-81
2023/08/01 08:29:28;;;;;;;2.25;1.92;;;25.70;97.10;;;;;;5000551;28;20032;-80
2023/08/01 08:31:54;;;;;;;1.58;1.48;;;25.60;97.00;;;;;;4999876;28;20058;-79
2023/08/01 08:34:19;;;;;;;2.22;1.83;;;25.80;97.40;;;;;;5000703;28;20102;-80
2023/08/01 08:36:46;;;;;;;2.17;1.70;;;25.70;96.20;;;;;;5002372;28;20531;-81
2023/08/01 08:39:12;;;;;;;2.15;1.60;;;25.70;96.80;;;;;;5001183;28;20026;-79
2023/08/01 08:41:47;;;;;;;3.85;1.60;;;25.60;96.90;;;;;;5000138;28;20451;-80
2023/08/01 08:44:19;;;;;;;1.77;1.48;;;25.40;98.40;;;;;;4999203;28;20409;-80
2023/08/01 08:46:52;;;;;;;1.77;1.40;;;25.50;98.40;;;;;;5026271;23;20133;-76
2023/08/01 08:49:21;;;;;;;2.30;1.55;;;25.60;98.40;;;;;;5013493;28;20030;-76
2023/08/01 08:51:48;;;;;;;4.47;1.55;;;25.70;96.90;;;;;;5013619;28;20112;-77
2023/08/01 08:54:15;;;;;;;1.52;1.33;;;25.80;96.70;;;;;;5012193;28;20033;-76
2023/08/01 08:56:41;;;;;;;1.52;1.20;;;25.80;96.50;;;;;;5012109;28;20026;-77
2023/08/01 08:59:10;;;;;;;3.13;1.40;;;25.70;96.20;;;;;;5011972;28;20544;-78
2023/08/01 09:01:36;;;;;;;1.58;1.40;;;25.50;96.50;;;;;;5013429;28;20026;-76
2023/08/01 09:04:03;;;;;;;1.73;1.58;;;25.40;97.10;;;;;;5013288;28;20109;-78
2023/08/01 09:06:31;;;;;;;1.63;1.40;;;25.40;98.00;;;;;;5013439;28;20022;-77
2023/08/01 09:09:10;;;;;;;1.67;1.50;;;25.40;97.80;;;;;;5013398;28;20388;-76
2023/08/01 09:11:56;;;;;;;1.65;1.40;;;25.60;97.50;;;;;;5012414;28;20022;-75
2023/08/01 09:14:22;;;;;;;1.27;1.17;;;25.60;96.90;;;;;;5013129;28;20030;-78
2023/08/01 09:16:48;;;;;;;2.85;1.90;;;25.50;97.70;;;;;;5013330;28;20029;-77
2023/08/01 09:19:31;;;;;;;2.10;1.55;;;25.70;98.80;;;;;;5011808;28;20018;-77
2023/08/01 09:21:58;;;;;;;3.03;1.52;;;25.90;97.80;;;;;;5012065;28;20113;-77
2023/08/01 09:24:23;;;;;;;1.50;1.40;;;25.80;97.10;;;;;;5013138;28;20025;-76
2023/08/01 09:26:49;;;;;;;3.70;1.10;;;25.70;97.70;;;;;;5013168;28;20018;-77
2023/08/01 09:29:20;;;;;;;1.63;1.48;;;25.70;97.00;;;;;;5012547;28;20125;-78
2023/08/01 09:31:45;;;;;;;2.75;1.38;;;25.30;98.50;;;;;;5013074;28;20105;-78
2023/08/01 09:34:23;;;;;;;3.20;1.35;;;25.50;98.60;;;;;;5011495;28;20124;-76
2023/08/01 09:36:49;;;;;;;1.20;1.05;;;25.70;97.80;;;;;;5012659;28;20061;-77
2023/08/01 09:39:20;;;;;;;3.63;2.00;;;25.60;98.00;;;;;;5012350;28;20036;-77
2023/08/01 09:41:46;;;;;;;5.65;1.80;;;25.30;98.50;;;;;;5012593;28;20026;-77
2023/08/01 09:44:16;;;;;;;1.60;1.20;;;25.20;98.00;;;;;;5011478;28;20400;-76
2023/08/01 09:46:43;;;;;;;1.23;1.13;;;25.20;98.80;;;;;;5011379;28;20049;-76
2023/08/01 09:49:10;;;;;;;2.13;1.55;;;25.30;99.50;;;;;;5011124;28;20029;-76
2023/08/01 09:51:48;;;;;;;2.85;1.65;;;25.40;98.00;;;;;;5011437;28;20107;-77
2023/08/01 09:54:15;;;;;;;1.48;1.38;;;25.30;98.70;;;;;;5012988;28;20076;-77
2023/08/01 09:56:46;;;;;;;3.22;1.20;;;25.30;99.60;;;;;;5013000;28;20388;-76
2023/08/01 09:59:12;;;;;;;2.20;1.27;;;25.30;99.70;;;;;;5012658;28;20014;-77
2023/08/01 10:01:40;;;;;;;1.65;1.55;;;25.20;99.70;;;;;;5013092;28;20030;-78
2023/08/01 10:04:08;;;;;;;3.47;1.55;;;25.30;99.40;;;;;;5014432;28;20026;-78
2023/08/01 10:06:38;;;;;;;2.30;1.15;;;25.30;98.60;;;;;;5011801;28;20018;-78
2023/08/01 10:09:04;;;;;;;1.48;1.38;;;25.30;98.60;;;;;;5012697;28;20104;-77
2023/08/01 10:11:34;;;;;;;1.55;1.40;;;25.20;98.70;;;;;;5012993;28;20054;-78
2023/08/01 10:14:02;;;;;;;4.90;1.60;;;25.10;98.00;;;;;;5012630;28;20026;-76
2023/08/01 10:16:29;;;;;;;1.38;1.20;;;25.10;98.90;;;;;;5011117;28;20108;-76
2023/08/01 10:18:56;;;;;;;1.20;1.10;;;25.00;99.20;;;;;;5012311;28;20056;-76
2023/08/01 10:21:22;;;;;;;1.35;1.25;;;25.00;99.20;;;;;;5010764;28;20071;-78
2023/08/01 10:23:49;;;;;;;1.75;1.65;;;25.10;99.90;;;;;;5010561;28;20028;-78
2023/08/01 10:26:15;;;;;;;3.47;1.20;;;25.10;99.90;;;;;;5012146;28;20078;-77
2023/08/01 10:28:48;;;;;;;2.10;1.42;;;25.20;99.50;;;;;;5012351;28;20075;-78
2023/08/01 10:31:16;;;;;;;2.22;1.58;;;25.00;98.80;;;;;;5012027;28;20057;-76
2023/08/01 10:33:43;;;;;;;3.10;1.52;;;24.90;99.90;;;;;;5010807;28;20021;-78
2023/08/01 10:36:20;;;;;;;2.78;2.47;;;24.80;99.90;;;;;;5012083;28;20022;-77
2023/08/01 10:38:49;;;;;;;1.95;1.73;;;25.00;99.90;;;;;;5012255;28;20033;-77
2023/08/01 10:41:35;;;;;;;3.83;1.63;;;25.00;99.90;;;;;;5011969;28;20029;-77
2023/08/01 10:44:07;;;;;;;1.58;1.25;;;25.00;99.90;;;;;;5011935;28;20472;-77
2023/08/01 10:46:48;;;;;;;3.08;1.60;;;25.00;99.60;;;;;;5011650;28;20428;-78
2023/08/01 10:49:14;;;;;;;1.77;1.67;;;24.80;99.90;;;;;;5010634;28;20026;-77
2023/08/01 10:51:40;;;;;;;2.10;1.45;;;24.90;99.90;;;;;;5010469;28;20054;-77
2023/08/01 10:54:05;;;;;;;1.45;1.35;;;25.00;99.90;;;;;;5010525;28;20065;-78
2023/08/01 10:56:31;;;;;;;2.83;2.13;;;24.80;99.90;;;;;;5010489;28;20366;-76
2023/08/01 10:58:58;;;;;;;1.52;1.42;;;24.80;99.90;;;;;;5010995;28;20545;-78
2023/08/01 11:01:26;;;;;;;2.30;1.85;;;24.90;99.90;;;;;;5011748;28;20022;-78
2023/08/01 11:03:52;;;;;;;3.63;1.92;;;24.90;99.90;;;;;;5011725;28;20439;-75
2023/08/01 11:06:17;;;;;;;2.25;1.50;;;24.80;99.90;;;;;;5010944;28;20080;-76
2023/08/01 11:08:43;;;;;;;1.45;1.25;;;24.70;99.90;;;;;;4999505;28;20065;-76
2023/08/01 11:11:12;;;;;;;2.53;1.90;;;24.70;99.90;;;;;;4992256;28;20034;-78
2023/08/01 11:13:38;;;;;;;1.75;1.65;;;24.80;99.90;;;;;;4991031;28;20141;-75
2023/08/01 11:16:05;;;;;;;4.50;1.80;;;24.70;99.90;;;;;;4990952;28;20090;-76
2023/08/01 11:18:43;;;;;;;2.10;1.88;;;24.50;99.90;;;;;;4990874;28;20114;-78
2023/08/01 11:21:09;;;;;;;1.85;1.60;;;24.60;99.90;;;;;;4990998;28;20019;-77
2023/08/01 11:23:36;;;;;;;3.80;1.52;;;24.40;99.90;;;;;;4992277;28;20034;-76
2023/08/01 11:26:10;;;;;;;1.48;1.38;;;24.40;99.90;;;;;;4991980;28;20074;-76
2023/08/01 11:28:36;;;;;;;1.53;1.40;;;24.40;99.90;;;;;;4990960;28;20044;-76
2023/08/01 11:31:11;;;;;;;2.20;1.60;;;24.30;99.90;;;;;;4992077;28;20026;-76
2023/08/01 11:33:36;;;;;;;1.75;1.58;;;24.30;99.90;;;;;;4990901;28;20076;-77
2023/08/01 11:36:03;;;;;;;1.70;1.50;;;24.30;99.90;;;;;;4993243;28;20030;-76
2023/08/01 11:38:30;;;;;;;1.50;1.40;;;24.20;99.90;;;;;;4994483;28;20122;-77
2023/08/01 11:40:57;;;;;;;1.80;1.70;;;24.10;99.90;;;;;;4994233;28;20026;-78
2023/08/01 11:43:23;;;;;;;4.03;1.30;;;24.00;99.90;;;;;;4995742;28;20030;-76
2023/08/01 11:45:54;;;;;;;1.90;1.55;;;24.00;99.90;;;;;;5007878;28;20050;-75
2023/08/01 11:48:21;;;;;;;1.75;1.30;;;24.00;99.90;;;;;;5007550;28;20026;-76
2023/08/01 11:50:47;;;;;;;2.00;1.80;;;23.90;99.90;;;;;;5004609;28;20026;-76
2023/08/01 11:53:22;;;;;;;3.03;1.60;;;23.90;99.90;;;;;;4994725;28;20035;-76
2023/08/01 11:55:52;;;;;;;1.77;1.65;;;23.70;99.90;;;;;;4995204;28;20046;-76
2023/08/01 11:58:41;;;;;;;2.53;1.38;;;23.60;99.90;;;;;;4993902;28;20023;-78
2023/08/01 12:01:10;;;;;;;4.40;1.90;;;23.50;99.90;;;;;;4993763;28;20094;-76
2023/08/01 12:03:58;;;;;;;1.98;1.80;;;23.50;99.90;;;;;;4993728;28;20101;-75
2023/08/01 12:06:24;;;;;;;2.63;1.85;;;23.40;99.90;;;;;;4993857;28;20023;-79
2023/08/01 12:08:51;;;;;;;5.88;2.00;;;23.30;99.90;;;;;;4994260;28;20030;-76
2023/08/01 12:11:22;;;;;;;1.95;1.63;;;23.30;99.90;;;;;;4996776;28;20038;-76
2023/08/01 12:13:48;;;;;;;2.00;1.80;;;23.40;99.90;;;;;;4994789;28;20098;-76
2023/08/01 12:16:19;;;;;;;2.38;2.00;;;23.30;99.90;;;;;;4993442;28;20023;-76
2023/08/01 12:18:47;;;;;;;4.55;1.73;;;23.30;99.90;;;;;;4995320;28;20061;-78
2023/08/01 12:21:12;;;;;;;2.28;2.08;;;23.20;99.90;;;;;;4993674;28;20050;-78
2023/08/01 12:23:39;;;;;;;3.22;2.20;;;23.30;99.90;;;;;;4994786;28;20482;-78
2023/08/01 12:26:06;;;;;;;2.03;1.83;;;23.20;99.90;;;;;;4993456;28;20027;-79
2023/08/01 12:28:32;;;;;;;2.80;1.83;;;23.10;99.90;;;;;;4995094;28;20110;-78
2023/08/01 12:30:58;;;;;;;4.10;1.65;;;23.20;99.90;;;;;;4993848;28;20031;-84
2023/08/01 12:33:25;;;;;;;5.28;2.90;;;23.20;99.90;;;;;;4993637;28;20038;-78
2023/08/01 12:35:50;;;;;;;1.65;1.55;;;23.10;99.90;;;;;;4993529;28;20022;-77
2023/08/01 12:38:16;;;;;;;2.15;1.70;;;22.80;99.90;;;;;;4993113;28;20022;-77
2023/08/01 12:40:41;;;;;;;2.13;1.83;;;22.10;99.90;;;;;;4993435;28;20641;-77
2023/08/01 12:43:07;;;;;;;3.72;2.35;;;21.70;99.90;;;;;;4993622;28;20076;-78
2023/08/01 12:45:33;;;;;;;2.42;1.73;;;21.40;99.90;;;;;;4994283;28;20026;-76